GEV weather

Ashe County Airport
Jefferson, North Carolina, United States

Public forecast

Using degrees Fahrenheit for public forecast. Weather courtesy of forecast.io.

METAR (pilot weather report)

Retrieved 2019/04/19 18:05 UTC (2 minutes ago):

KGEV 191805Z AUTO 32003KT 3SM /VCTSRA BKN018 OVC025 12/12 A2963 RMK AO2 LTG DSNT NE THRU S P0005 T01190117

TAF (pilot weather forecast)

Closest forecast is Hickory Regional Airport, 41.5 nm (76.9 km) S. Retrieved 2019/04/19 18:48 UTC (0 seconds ago):

TAF COR KHKY 191747Z 1918/2018 17010G26KT 3SM RA BR VCTS SCT021CB OVC060 TEMPO 1920/1924 1SM +TSRA OVC015CB FM200000 19009G21KT P6SM VCSH SCT019 BKN022 FM200900 20010G20KT P6SM BKN009 FM201400 19012G21KT P6SM OVC019 PROB30 2015/2018 4SM -SHRA OVC011